createdAt,value
2023-01-09T00:00:04.614Z,989.74
2023-01-09T00:01:04.488Z,989.72
2023-01-09T00:02:04.493Z,989.71
2023-01-09T00:03:04.385Z,989.72
2023-01-09T00:04:04.589Z,989.69
2023-01-09T00:05:04.275Z,989.68
2023-01-09T00:06:04.215Z,989.68
2023-01-09T00:07:04.168Z,989.69
2023-01-09T00:08:04.103Z,989.69
2023-01-09T00:09:04.045Z,989.69
2023-01-09T00:10:04.115Z,989.70
2023-01-09T00:11:03.928Z,989.66
2023-01-09T00:12:03.869Z,989.63
2023-01-09T00:13:03.838Z,989.61
2023-01-09T00:14:03.763Z,989.60
2023-01-09T00:15:03.714Z,989.61
2023-01-09T00:16:03.972Z,989.63
2023-01-09T00:17:03.691Z,989.65
2023-01-09T00:18:03.545Z,989.68
2023-01-09T00:19:03.492Z,989.68
2023-01-09T00:20:03.475Z,989.67
2023-01-09T00:21:03.390Z,989.68
2023-01-09T00:22:03.483Z,989.66
2023-01-09T00:23:03.306Z,989.64
2023-01-09T00:24:03.247Z,989.61
2023-01-09T00:25:03.183Z,989.59
2023-01-09T00:26:03.112Z,989.60
2023-01-09T00:27:03.058Z,989.60
2023-01-09T00:28:03.160Z,989.60
2023-01-09T00:29:02.962Z,989.60
2023-01-09T00:30:02.924Z,989.60
2023-01-09T00:31:02.966Z,989.59
2023-01-09T00:32:02.789Z,989.56
2023-01-09T00:33:02.747Z,989.55
2023-01-09T00:34:02.861Z,989.53
2023-01-09T00:35:02.595Z,989.50
2023-01-09T00:36:02.536Z,989.50
2023-01-09T00:37:02.483Z,989.49
2023-01-09T00:38:02.424Z,989.49
2023-01-09T00:39:02.397Z,989.47
2023-01-09T00:40:02.472Z,989.45
2023-01-09T00:41:02.270Z,989.43
2023-01-09T00:42:02.190Z,989.39
2023-01-09T00:43:02.146Z,989.38
2023-01-09T00:44:02.096Z,989.36
2023-01-09T00:45:02.062Z,989.35
2023-01-09T00:46:02.156Z,989.35
2023-01-09T00:47:01.926Z,989.33
2023-01-09T00:48:01.873Z,989.34
2023-01-09T00:49:01.835Z,989.34
2023-01-09T00:50:01.764Z,989.33
2023-01-09T00:51:01.710Z,989.33
2023-01-09T00:52:01.774Z,989.34
2023-01-09T00:53:01.594Z,989.34
2023-01-09T00:54:01.549Z,989.35
2023-01-09T00:55:01.491Z,989.35
2023-01-09T00:56:01.430Z,989.34
2023-01-09T00:57:01.387Z,989.33
2023-01-09T00:58:01.487Z,989.33
2023-01-09T00:59:01.296Z,989.32
2023-01-09T01:00:01.225Z,989.31
2023-01-09T01:01:01.271Z,989.31
2023-01-09T01:02:01.385Z,989.32
2023-01-09T01:03:01.113Z,989.32
2023-01-09T01:04:01.177Z,989.33
2023-01-09T01:05:00.962Z,989.35
2023-01-09T01:06:00.898Z,989.34
2023-01-09T01:07:00.848Z,989.34
2023-01-09T01:08:00.800Z,989.30
2023-01-09T01:09:00.747Z,989.29
2023-01-09T01:10:00.833Z,989.27
2023-01-09T01:11:00.641Z,989.26
2023-01-09T01:12:00.577Z,989.24
2023-01-09T01:13:00.551Z,989.24
2023-01-09T01:14:00.472Z,989.24
2023-01-09T01:15:00.433Z,989.23
2023-01-09T01:16:00.409Z,989.24
2023-01-09T01:17:00.361Z,989.24
2023-01-09T01:18:00.295Z,989.24
2023-01-09T01:19:00.196Z,989.25
2023-01-09T01:20:00.138Z,989.25
2023-01-09T01:21:00.140Z,989.24
2023-01-09T01:22:00.327Z,989.27
2023-01-09T01:22:59.983Z,989.26
2023-01-09T01:23:59.982Z,989.27
2023-01-09T01:24:59.908Z,989.24
2023-01-09T01:25:59.875Z,989.25
2023-01-09T01:26:59.775Z,989.22
2023-01-09T01:27:59.931Z,989.21
2023-01-09T01:28:59.696Z,989.21
2023-01-09T01:29:59.722Z,989.21
2023-01-09T01:30:59.681Z,989.20
2023-01-09T01:31:59.536Z,989.18
2023-01-09T01:32:59.456Z,989.18
2023-01-09T01:33:59.541Z,989.15
2023-01-09T01:34:59.342Z,989.12
2023-01-09T01:35:59.271Z,989.09
2023-01-09T01:36:59.224Z,989.05
2023-01-09T01:37:59.167Z,989.03
2023-01-09T01:38:59.105Z,989.01
2023-01-09T01:39:59.168Z,989.01
2023-01-09T01:40:58.976Z,988.99
2023-01-09T01:41:58.946Z,988.97
2023-01-09T01:42:58.859Z,988.94
2023-01-09T01:43:58.813Z,988.93
2023-01-09T01:44:58.770Z,988.90
2023-01-09T01:45:58.889Z,988.88
2023-01-09T01:46:58.627Z,988.88
2023-01-09T01:47:58.578Z,988.87
2023-01-09T01:48:58.518Z,988.88
2023-01-09T01:49:58.501Z,988.89
2023-01-09T01:50:58.405Z,988.89
2023-01-09T01:51:58.501Z,988.85
2023-01-09T01:52:58.287Z,988.83
2023-01-09T01:53:58.233Z,988.81
2023-01-09T01:54:58.173Z,988.79
2023-01-09T01:55:58.114Z,988.79
2023-01-09T01:56:58.058Z,988.76
2023-01-09T01:57:58.173Z,988.76
2023-01-09T01:58:57.948Z,988.76
2023-01-09T01:59:57.905Z,988.77
2023-01-09T02:00:57.939Z,988.76
2023-01-09T02:01:57.877Z,988.77
2023-01-09T02:02:57.754Z,988.77
2023-01-09T02:03:57.801Z,988.75
2023-01-09T02:04:57.607Z,988.72
2023-01-09T02:05:57.549Z,988.72
2023-01-09T02:06:57.485Z,988.70
2023-01-09T02:07:57.428Z,988.71
2023-01-09T02:08:57.383Z,988.71
2023-01-09T02:09:57.453Z,988.68
2023-01-09T02:10:57.264Z,988.67
2023-01-09T02:11:57.215Z,988.68
2023-01-09T02:12:57.151Z,988.67
2023-01-09T02:13:57.109Z,988.66
2023-01-09T02:14:57.041Z,988.65
2023-01-09T02:15:57.206Z,988.62
2023-01-09T02:16:56.921Z,988.63
2023-01-09T02:17:56.871Z,988.64
2023-01-09T02:18:56.791Z,988.63
2023-01-09T02:19:56.734Z,988.64
2023-01-09T02:20:56.691Z,988.64
2023-01-09T02:21:56.740Z,988.64
2023-01-09T02:22:56.550Z,988.62
2023-01-09T02:23:56.500Z,988.59
2023-01-09T02:24:56.431Z,988.58
2023-01-09T02:25:56.374Z,988.55
2023-01-09T02:26:56.316Z,988.54
2023-01-09T02:27:56.547Z,988.52
2023-01-09T02:28:56.195Z,988.49
2023-01-09T02:29:56.132Z,988.48
2023-01-09T02:30:56.087Z,988.47
2023-01-09T02:31:56.075Z,988.48
2023-01-09T02:32:56.108Z,988.47
2023-01-09T02:33:56.042Z,988.45
2023-01-09T02:34:55.834Z,988.45
2023-01-09T02:35:55.781Z,988.46
2023-01-09T02:36:55.730Z,988.47
2023-01-09T02:37:55.660Z,988.45
2023-01-09T02:38:55.617Z,988.43
2023-01-09T02:39:55.703Z,988.43
2023-01-09T02:40:55.491Z,988.43
2023-01-09T02:41:55.425Z,988.47
2023-01-09T02:42:55.373Z,988.49
2023-01-09T02:43:55.316Z,988.49
2023-01-09T02:44:55.253Z,988.49
2023-01-09T02:45:55.415Z,988.49
2023-01-09T02:46:55.146Z,988.51
2023-01-09T02:47:55.128Z,988.56
2023-01-09T02:48:55.016Z,988.58
2023-01-09T02:49:54.961Z,988.58
2023-01-09T02:50:54.899Z,988.58
2023-01-09T02:51:54.982Z,988.58
2023-01-09T02:52:54.781Z,988.56
2023-01-09T02:53:54.736Z,988.53
2023-01-09T02:54:54.664Z,988.51
2023-01-09T02:55:54.605Z,988.50
2023-01-09T02:56:54.541Z,988.49
2023-01-09T02:57:54.644Z,988.53
2023-01-09T02:58:54.423Z,988.56
2023-01-09T02:59:54.375Z,988.57
2023-01-09T03:00:54.501Z,988.59
2023-01-09T03:01:54.452Z,988.60
2023-01-09T03:02:54.262Z,988.62
2023-01-09T03:03:54.303Z,988.65
2023-01-09T03:04:54.099Z,988.67
2023-01-09T03:05:54.039Z,988.69
2023-01-09T03:06:54.002Z,988.70
2023-01-09T03:07:53.939Z,988.70
2023-01-09T03:08:53.867Z,988.71
2023-01-09T03:09:53.980Z,988.72
2023-01-09T03:10:53.744Z,988.75
2023-01-09T03:11:53.698Z,988.78
2023-01-09T03:12:53.646Z,988.77
2023-01-09T03:13:53.590Z,988.76
2023-01-09T03:14:53.541Z,988.76
2023-01-09T03:15:53.595Z,988.78
2023-01-09T03:16:53.415Z,988.74
2023-01-09T03:17:53.339Z,988.73
2023-01-09T03:18:53.279Z,988.71
2023-01-09T03:19:53.235Z,988.73
2023-01-09T03:20:53.171Z,988.71
2023-01-09T03:21:53.271Z,988.71
2023-01-09T03:22:53.079Z,988.70
2023-01-09T03:23:53.031Z,988.70
2023-01-09T03:24:52.947Z,988.69
2023-01-09T03:25:52.909Z,988.71
2023-01-09T03:26:52.842Z,988.68
2023-01-09T03:27:52.949Z,988.68
2023-01-09T03:28:52.746Z,988.65
2023-01-09T03:29:52.693Z,988.65
2023-01-09T03:30:52.656Z,988.62
2023-01-09T03:31:52.677Z,988.60
2023-01-09T03:32:52.553Z,988.60
2023-01-09T03:33:52.770Z,988.58
2023-01-09T03:34:52.411Z,988.58
2023-01-09T03:35:52.373Z,988.59
2023-01-09T03:36:52.309Z,988.60
2023-01-09T03:37:52.255Z,988.61
2023-01-09T03:38:52.202Z,988.61
2023-01-09T03:39:52.286Z,988.62
2023-01-09T03:40:52.124Z,988.63
2023-01-09T03:41:52.050Z,988.64
2023-01-09T03:42:51.993Z,988.64
2023-01-09T03:43:51.959Z,988.66
2023-01-09T03:44:51.887Z,988.67
2023-01-09T03:45:52.005Z,988.68
2023-01-09T03:46:51.774Z,988.67
2023-01-09T03:47:53.020Z,988.66
2023-01-09T03:48:51.672Z,988.65
2023-01-09T03:49:51.613Z,988.65
2023-01-09T03:50:51.556Z,988.67
2023-01-09T03:51:51.605Z,988.70
2023-01-09T03:52:51.443Z,988.68
2023-01-09T03:53:51.401Z,988.68
2023-01-09T03:54:51.339Z,988.66
2023-01-09T03:55:51.290Z,988.67
2023-01-09T03:56:51.226Z,988.68
2023-01-09T03:57:51.298Z,988.69
2023-01-09T03:58:51.116Z,988.68
2023-01-09T03:59:51.089Z,988.65
2023-01-09T04:00:51.281Z,988.66
2023-01-09T04:01:51.099Z,988.65
2023-01-09T04:02:50.906Z,988.65
2023-01-09T04:03:50.968Z,988.67
2023-01-09T04:04:50.840Z,988.70
2023-01-09T04:05:50.751Z,988.71
2023-01-09T04:06:50.691Z,988.72
2023-01-09T04:07:50.644Z,988.72
2023-01-09T04:08:50.588Z,988.75
2023-01-09T04:09:50.687Z,988.77
2023-01-09T04:10:50.490Z,988.78
2023-01-09T04:11:50.448Z,988.81
2023-01-09T04:12:50.411Z,988.81
2023-01-09T04:13:50.338Z,988.82
2023-01-09T04:14:50.288Z,988.81
2023-01-09T04:15:50.410Z,988.81
2023-01-09T04:16:50.200Z,988.80
2023-01-09T04:17:50.151Z,988.81
2023-01-09T04:18:50.098Z,988.82
2023-01-09T04:19:50.042Z,988.78
2023-01-09T04:20:49.989Z,988.78
2023-01-09T04:21:50.079Z,988.78
2023-01-09T04:22:49.866Z,988.78
2023-01-09T04:23:49.857Z,988.76
2023-01-09T04:24:49.764Z,988.77
2023-01-09T04:25:49.733Z,988.79
2023-01-09T04:26:49.702Z,988.79
2023-01-09T04:27:49.788Z,988.80
2023-01-09T04:28:49.567Z,988.80
2023-01-09T04:29:49.508Z,988.80
2023-01-09T04:30:49.468Z,988.77
2023-01-09T04:31:49.444Z,988.77
2023-01-09T04:32:49.355Z,988.77
2023-01-09T04:33:49.443Z,988.79
2023-01-09T04:34:49.261Z,988.81
2023-01-09T04:35:49.220Z,988.83
2023-01-09T04:36:49.143Z,988.83
2023-01-09T04:37:49.130Z,988.84
2023-01-09T04:38:49.088Z,988.85
2023-01-09T04:39:49.325Z,988.83
2023-01-09T04:40:48.953Z,988.80
2023-01-09T04:41:48.897Z,988.80
2023-01-09T04:42:48.831Z,988.79
2023-01-09T04:43:48.800Z,988.78
2023-01-09T04:44:48.729Z,988.76
2023-01-09T04:45:48.853Z,988.75
2023-01-09T04:46:48.628Z,988.75
2023-01-09T04:47:48.576Z,988.75
2023-01-09T04:48:48.521Z,988.73
2023-01-09T04:49:48.476Z,988.70
2023-01-09T04:50:48.419Z,988.70
2023-01-09T04:51:48.531Z,988.71
2023-01-09T04:52:48.337Z,988.74
2023-01-09T04:53:48.261Z,988.74
2023-01-09T04:54:48.219Z,988.74
2023-01-09T04:55:48.186Z,988.72
2023-01-09T04:56:48.109Z,988.70
2023-01-09T04:57:48.223Z,988.68
2023-01-09T04:58:47.986Z,988.66
2023-01-09T04:59:47.947Z,988.63
2023-01-09T05:00:47.918Z,988.62
2023-01-09T05:01:48.004Z,988.62
2023-01-09T05:02:47.782Z,988.62
2023-01-09T05:03:47.898Z,988.63
2023-01-09T05:04:47.692Z,988.63
2023-01-09T05:05:47.639Z,988.61
2023-01-09T05:06:47.583Z,988.60
2023-01-09T05:07:47.563Z,988.59
2023-01-09T05:08:47.478Z,988.62
2023-01-09T05:09:47.587Z,988.61
2023-01-09T05:10:47.384Z,988.60
2023-01-09T05:11:47.348Z,988.59
2023-01-09T05:12:47.271Z,988.60
2023-01-09T05:13:47.227Z,988.60
2023-01-09T05:14:47.170Z,988.58
2023-01-09T05:15:47.267Z,988.60
2023-01-09T05:16:47.099Z,988.60
2023-01-09T05:17:47.019Z,988.58
2023-01-09T05:18:46.942Z,988.53
2023-01-09T05:19:46.893Z,988.52
2023-01-09T05:20:46.839Z,988.49
2023-01-09T05:21:46.949Z,988.49
2023-01-09T05:22:46.750Z,988.48
2023-01-09T05:23:46.674Z,988.47
2023-01-09T05:24:46.621Z,988.48
2023-01-09T05:25:46.527Z,988.49
2023-01-09T05:26:46.516Z,988.51
2023-01-09T05:27:46.561Z,988.49
2023-01-09T05:28:46.491Z,988.46
2023-01-09T05:29:46.430Z,988.44
2023-01-09T05:30:46.230Z,988.45
2023-01-09T05:31:46.360Z,988.46
2023-01-09T05:32:46.135Z,988.46
2023-01-09T05:33:46.222Z,988.45
2023-01-09T05:34:46.038Z,988.44
2023-01-09T05:35:45.971Z,988.43
2023-01-09T05:36:45.908Z,988.44
2023-01-09T05:37:45.866Z,988.46
2023-01-09T05:38:45.835Z,988.46
2023-01-09T05:39:45.913Z,988.46
2023-01-09T05:40:45.701Z,988.44
2023-01-09T05:41:45.662Z,988.44
2023-01-09T05:42:45.605Z,988.45
2023-01-09T05:43:45.545Z,988.46
2023-01-09T05:44:45.512Z,988.48
2023-01-09T05:45:45.788Z,988.47
2023-01-09T05:46:45.428Z,988.46
2023-01-09T05:47:45.390Z,988.46
2023-01-09T05:48:45.313Z,988.44
2023-01-09T05:49:45.258Z,988.42
2023-01-09T05:50:45.208Z,988.39
2023-01-09T05:51:45.311Z,988.39
2023-01-09T05:52:45.088Z,988.38
2023-01-09T05:53:45.018Z,988.40
2023-01-09T05:54:44.986Z,988.39
2023-01-09T05:55:44.917Z,988.38
2023-01-09T05:56:44.851Z,988.38
2023-01-09T05:57:44.947Z,988.37
2023-01-09T05:58:44.774Z,988.36
2023-01-09T05:59:44.698Z,988.35
2023-01-09T06:00:44.624Z,988.34
2023-01-09T06:01:44.610Z,988.33
2023-01-09T06:02:44.643Z,988.31
2023-01-09T06:03:44.708Z,988.30
2023-01-09T06:04:44.397Z,988.29
2023-01-09T06:05:44.351Z,988.29
2023-01-09T06:06:44.312Z,988.30
2023-01-09T06:07:44.217Z,988.30
2023-01-09T06:08:44.168Z,988.33
2023-01-09T06:09:44.288Z,988.34
2023-01-09T06:10:44.067Z,988.35
2023-01-09T06:11:43.991Z,988.34
2023-01-09T06:12:43.945Z,988.36
2023-01-09T06:13:43.894Z,988.33
2023-01-09T06:14:43.814Z,988.31
2023-01-09T06:15:44.011Z,988.31
2023-01-09T06:16:43.697Z,988.32
2023-01-09T06:17:43.658Z,988.31
2023-01-09T06:18:43.595Z,988.29
2023-01-09T06:19:43.567Z,988.28
2023-01-09T06:20:43.475Z,988.29
2023-01-09T06:21:43.562Z,988.29
2023-01-09T06:22:43.388Z,988.26
2023-01-09T06:23:43.301Z,988.24
2023-01-09T06:24:43.257Z,988.23
2023-01-09T06:25:43.188Z,988.22
2023-01-09T06:26:43.223Z,988.21
2023-01-09T06:27:44.065Z,988.20
2023-01-09T06:28:44.713Z,988.20
2023-01-09T06:29:43.232Z,988.20
2023-01-09T06:30:45.103Z,988.19
2023-01-09T06:31:43.044Z,988.18
2023-01-09T06:32:42.816Z,988.18
2023-01-09T06:33:43.259Z,988.18
2023-01-09T06:34:42.859Z,988.18
2023-01-09T06:35:43.746Z,988.17
2023-01-09T06:36:42.874Z,988.15
2023-01-09T06:37:42.551Z,988.14
2023-01-09T06:38:42.575Z,988.16
2023-01-09T06:39:42.926Z,988.18
2023-01-09T06:40:42.406Z,988.18
2023-01-09T06:41:42.354Z,988.16
2023-01-09T06:42:42.511Z,988.14
2023-01-09T06:43:43.484Z,988.16
2023-01-09T06:44:42.376Z,988.16
2023-01-09T06:45:42.216Z,988.18
2023-01-09T06:46:42.226Z,988.24
2023-01-09T06:47:42.276Z,988.24
2023-01-09T06:48:43.313Z,988.19
2023-01-09T06:49:43.639Z,988.16
2023-01-09T06:50:42.500Z,988.12
2023-01-09T06:51:42.301Z,988.11
2023-01-09T06:52:41.913Z,988.11
2023-01-09T06:53:41.735Z,988.13
2023-01-09T06:54:41.596Z,988.11
2023-01-09T06:55:41.550Z,988.09
2023-01-09T06:56:41.496Z,988.13
2023-01-09T06:57:41.572Z,988.13
2023-01-09T06:58:41.381Z,988.10
2023-01-09T06:59:41.310Z,988.08
2023-01-09T07:00:41.269Z,988.09
2023-01-09T07:01:41.284Z,988.07
2023-01-09T07:02:41.154Z,988.06
2023-01-09T07:03:41.237Z,988.04
2023-01-09T07:04:41.046Z,988.04
2023-01-09T07:05:40.974Z,988.07
2023-01-09T07:06:40.931Z,988.11
2023-01-09T07:07:40.877Z,988.17
2023-01-09T07:08:40.815Z,988.15
2023-01-09T07:09:40.805Z,988.15
2023-01-09T07:10:40.712Z,988.14
2023-01-09T07:11:40.653Z,988.16
2023-01-09T07:12:40.598Z,988.16
2023-01-09T07:13:40.536Z,988.14
2023-01-09T07:14:40.512Z,988.13
2023-01-09T07:15:40.658Z,988.12
2023-01-09T07:16:40.382Z,988.11
2023-01-09T07:17:40.326Z,988.10
2023-01-09T07:18:40.267Z,988.09
2023-01-09T07:19:40.224Z,988.07
2023-01-09T07:20:40.160Z,988.08
2023-01-09T07:21:40.231Z,988.09
2023-01-09T07:22:40.041Z,988.10
2023-01-09T07:23:40.011Z,988.11
2023-01-09T07:24:39.946Z,988.12
2023-01-09T07:25:39.886Z,988.11
2023-01-09T07:26:40.538Z,988.09
2023-01-09T07:27:39.917Z,988.09
2023-01-09T07:28:39.731Z,988.10
2023-01-09T07:29:39.689Z,988.10
2023-01-09T07:30:39.631Z,988.10
2023-01-09T07:31:39.673Z,988.10
2023-01-09T07:32:39.549Z,988.10
2023-01-09T07:33:39.644Z,988.09
2023-01-09T07:34:39.410Z,988.07
2023-01-09T07:35:39.389Z,988.09
2023-01-09T07:36:39.275Z,988.11
2023-01-09T07:37:39.213Z,988.14
2023-01-09T07:38:39.166Z,988.13
2023-01-09T07:39:39.253Z,988.14
2023-01-09T07:40:39.099Z,988.16
2023-01-09T07:41:39.014Z,988.14
2023-01-09T07:42:38.940Z,988.12
2023-01-09T07:43:38.876Z,988.11
2023-01-09T07:44:38.828Z,988.12
2023-01-09T07:45:38.923Z,988.13
2023-01-09T07:46:38.791Z,988.13
2023-01-09T07:47:38.651Z,988.13
2023-01-09T07:48:38.606Z,988.14
2023-01-09T07:49:38.563Z,988.13
2023-01-09T07:50:38.499Z,988.11
2023-01-09T07:51:38.607Z,988.09
2023-01-09T07:52:38.391Z,988.08
2023-01-09T07:53:38.328Z,988.06
2023-01-09T07:54:38.291Z,988.06
2023-01-09T07:55:38.269Z,988.05
2023-01-09T07:56:38.219Z,988.04
2023-01-09T07:57:38.412Z,988.04
2023-01-09T07:58:38.063Z,988.04
2023-01-09T07:59:38.066Z,988.04
2023-01-09T08:00:38.082Z,988.04
2023-01-09T08:01:37.999Z,988.03
2023-01-09T08:02:37.996Z,988.01
2023-01-09T08:03:37.910Z,987.99
2023-01-09T08:04:37.735Z,987.95
2023-01-09T08:05:37.674Z,987.93
2023-01-09T08:06:37.631Z,987.93
2023-01-09T08:07:37.603Z,987.93
2023-01-09T08:08:37.526Z,987.95
2023-01-09T08:09:37.636Z,987.96
2023-01-09T08:10:37.415Z,988.00
2023-01-09T08:11:37.350Z,988.01
2023-01-09T08:12:37.313Z,988.00
2023-01-09T08:13:37.257Z,988.00
2023-01-09T08:14:37.207Z,987.95
2023-01-09T08:15:37.389Z,987.93
2023-01-09T08:16:37.089Z,987.92
2023-01-09T08:17:37.038Z,987.92
2023-01-09T08:18:36.972Z,987.92
2023-01-09T08:19:36.905Z,987.94
2023-01-09T08:20:36.876Z,987.93
2023-01-09T08:21:36.926Z,987.96
2023-01-09T08:22:36.729Z,987.93
2023-01-09T08:23:36.697Z,987.92
2023-01-09T08:24:36.639Z,987.92
2023-01-09T08:25:36.586Z,987.91
2023-01-09T08:26:36.527Z,987.89
2023-01-09T08:27:36.613Z,987.88
2023-01-09T08:28:36.433Z,987.86
2023-01-09T08:29:36.358Z,987.84
2023-01-09T08:30:36.271Z,987.82
2023-01-09T08:31:36.264Z,987.79
2023-01-09T08:32:36.151Z,987.79
2023-01-09T08:33:36.284Z,987.77
2023-01-09T08:34:36.113Z,987.74
2023-01-09T08:35:36.015Z,987.71
2023-01-09T08:36:35.936Z,987.69
2023-01-09T08:37:35.965Z,987.69
2023-01-09T08:38:35.839Z,987.67
2023-01-09T08:39:35.937Z,987.66
2023-01-09T08:40:35.710Z,987.66
2023-01-09T08:41:35.677Z,987.66
2023-01-09T08:42:35.603Z,987.66
2023-01-09T08:43:35.565Z,987.66
2023-01-09T08:44:35.561Z,987.67
2023-01-09T08:45:35.618Z,987.68
2023-01-09T08:46:35.439Z,987.66
2023-01-09T08:47:35.347Z,987.67
2023-01-09T08:48:35.311Z,987.67
2023-01-09T08:49:35.278Z,987.65
2023-01-09T08:50:35.181Z,987.66
2023-01-09T08:51:35.261Z,987.67
2023-01-09T08:52:35.057Z,987.66
2023-01-09T08:53:35.064Z,987.65
2023-01-09T08:54:34.965Z,987.66
2023-01-09T08:55:34.885Z,987.63
2023-01-09T08:56:34.871Z,987.64
2023-01-09T08:57:34.907Z,987.64
2023-01-09T08:58:34.720Z,987.64
2023-01-09T08:59:34.655Z,987.64
2023-01-09T09:00:34.625Z,987.64
2023-01-09T09:01:34.587Z,987.66
2023-01-09T09:02:34.587Z,987.66
2023-01-09T09:03:34.740Z,987.64
2023-01-09T09:04:34.389Z,987.60
2023-01-09T09:05:34.344Z,987.58
2023-01-09T09:06:34.290Z,987.54
2023-01-09T09:07:34.220Z,987.53
2023-01-09T09:08:34.167Z,987.53
2023-01-09T09:09:34.363Z,987.51
2023-01-09T09:10:34.051Z,987.52
2023-01-09T09:11:33.987Z,987.52
2023-01-09T09:12:33.975Z,987.49
2023-01-09T09:13:33.947Z,987.48
2023-01-09T09:14:33.847Z,987.50
2023-01-09T09:15:33.903Z,987.52
2023-01-09T09:16:33.747Z,987.55
2023-01-09T09:17:33.651Z,987.56
2023-01-09T09:18:33.610Z,987.56
2023-01-09T09:19:33.573Z,987.55
2023-01-09T09:20:33.538Z,987.56
2023-01-09T09:21:33.585Z,987.57
2023-01-09T09:22:33.361Z,987.57
2023-01-09T09:23:33.369Z,987.57
2023-01-09T09:24:33.255Z,987.58
2023-01-09T09:25:33.207Z,987.58
2023-01-09T09:26:33.134Z,987.60
2023-01-09T09:27:33.226Z,987.62
2023-01-09T09:28:33.038Z,987.66
2023-01-09T09:29:32.994Z,987.70
2023-01-09T09:30:32.918Z,987.72
2023-01-09T09:31:32.916Z,987.72
2023-01-09T09:32:32.812Z,987.71
2023-01-09T09:33:32.888Z,987.70
2023-01-09T09:34:32.669Z,987.71
2023-01-09T09:35:32.618Z,987.72
2023-01-09T09:36:32.602Z,987.72
2023-01-09T09:37:32.486Z,987.72
2023-01-09T09:38:32.515Z,987.71
2023-01-09T09:39:32.538Z,987.69
2023-01-09T09:40:32.315Z,987.66
2023-01-09T09:41:32.337Z,987.69
2023-01-09T09:42:32.243Z,987.73
2023-01-09T09:43:32.287Z,987.78
2023-01-09T09:44:32.093Z,987.82
2023-01-09T09:45:32.286Z,987.83
2023-01-09T09:46:32.045Z,987.84
2023-01-09T09:47:32.020Z,987.84
2023-01-09T09:48:31.881Z,987.83
2023-01-09T09:49:31.782Z,987.83
2023-01-09T09:50:31.749Z,987.84
2023-01-09T09:51:31.819Z,987.82
2023-01-09T09:52:31.587Z,987.77
2023-01-09T09:53:31.536Z,987.75
2023-01-09T09:54:31.541Z,987.77
2023-01-09T09:55:31.404Z,987.79
2023-01-09T09:56:31.331Z,987.79
2023-01-09T09:57:31.431Z,987.81
2023-01-09T09:58:31.230Z,987.82
2023-01-09T09:59:31.145Z,987.81
2023-01-09T10:00:31.103Z,987.81
2023-01-09T10:01:31.024Z,987.78
2023-01-09T10:02:30.980Z,987.77
2023-01-09T10:03:34.149Z,987.80
2023-01-09T10:04:30.819Z,987.83
2023-01-09T10:05:30.764Z,987.84
2023-01-09T10:06:30.692Z,987.84
2023-01-09T10:07:30.715Z,987.87
2023-01-09T10:08:30.672Z,987.86
2023-01-09T10:09:30.681Z,987.87
2023-01-09T10:10:30.442Z,987.88
2023-01-09T10:11:30.386Z,987.91
2023-01-09T10:12:30.329Z,987.92
2023-01-09T10:13:32.466Z,987.93
2023-01-09T10:14:30.196Z,987.94
2023-01-09T10:15:30.268Z,987.95
2023-01-09T10:16:30.084Z,987.97
2023-01-09T10:17:30.023Z,987.98
2023-01-09T10:18:29.967Z,988.00
2023-01-09T10:19:29.902Z,988.00
2023-01-09T10:20:29.835Z,988.01
2023-01-09T10:21:29.977Z,988.00
2023-01-09T10:22:29.760Z,988.01
2023-01-09T10:23:29.646Z,988.00
2023-01-09T10:24:29.570Z,988.01
2023-01-09T10:25:29.525Z,988.01
2023-01-09T10:26:29.475Z,988.02
2023-01-09T10:27:29.619Z,988.00
2023-01-09T10:28:29.331Z,987.99
2023-01-09T10:29:29.312Z,988.01
2023-01-09T10:30:29.231Z,987.98
2023-01-09T10:31:29.245Z,987.98
2023-01-09T10:32:29.077Z,988.00
2023-01-09T10:33:29.118Z,987.99
2023-01-09T10:34:28.953Z,988.00
2023-01-09T10:35:33.170Z,987.99
2023-01-09T10:36:28.817Z,987.98
2023-01-09T10:37:28.779Z,987.97
2023-01-09T10:38:28.687Z,987.95
2023-01-09T10:39:28.870Z,987.98
2023-01-09T10:40:28.597Z,987.96
2023-01-09T10:41:28.494Z,987.97
2023-01-09T10:42:28.440Z,987.94
2023-01-09T10:43:28.373Z,987.94
2023-01-09T10:44:28.329Z,987.96
2023-01-09T10:45:28.564Z,987.95
2023-01-09T10:46:28.271Z,987.97
2023-01-09T10:47:28.162Z,987.97
2023-01-09T10:48:28.087Z,988.02
2023-01-09T10:49:28.025Z,988.02
2023-01-09T10:50:27.990Z,988.02
2023-01-09T10:51:28.059Z,988.02
2023-01-09T10:52:27.827Z,988.02
2023-01-09T10:53:27.763Z,988.03
2023-01-09T10:54:27.756Z,988.05
2023-01-09T10:55:27.644Z,988.03
2023-01-09T10:56:27.624Z,988.05
2023-01-09T10:57:27.654Z,988.03
2023-01-09T10:58:27.506Z,988.01
2023-01-09T10:59:27.405Z,988.03
2023-01-09T11:00:27.351Z,988.03
2023-01-09T11:01:27.281Z,988.05
2023-01-09T11:02:27.312Z,988.04
2023-01-09T11:03:27.436Z,988.06
2023-01-09T11:04:27.085Z,988.02
2023-01-09T11:05:27.969Z,988.04
2023-01-09T11:06:26.985Z,988.01
2023-01-09T11:07:26.969Z,988.03
2023-01-09T11:08:26.902Z,988.04
2023-01-09T11:09:27.115Z,988.01
2023-01-09T11:10:26.790Z,988.03
2023-01-09T11:11:26.681Z,988.03
2023-01-09T11:12:26.614Z,988.05
2023-01-09T11:13:26.589Z,988.04
2023-01-09T11:14:26.520Z,988.04
2023-01-09T11:15:26.923Z,988.02
2023-01-09T11:16:26.465Z,987.99
2023-01-09T11:17:26.313Z,987.96
2023-01-09T11:18:26.255Z,987.98
2023-01-09T11:19:26.240Z,987.98
2023-01-09T11:20:26.170Z,987.98
2023-01-09T11:21:26.232Z,987.98
2023-01-09T11:22:26.005Z,987.98
2023-01-09T11:23:25.986Z,987.97
2023-01-09T11:24:25.873Z,987.97
2023-01-09T11:25:25.865Z,987.95
2023-01-09T11:26:25.773Z,987.94
2023-01-09T11:27:25.853Z,987.91
2023-01-09T11:28:25.638Z,987.90
2023-01-09T11:29:25.584Z,987.88
2023-01-09T11:30:25.508Z,987.86
2023-01-09T11:31:25.518Z,987.84
2023-01-09T11:32:25.398Z,987.83
2023-01-09T11:33:25.470Z,987.83
2023-01-09T11:34:25.254Z,987.81
2023-01-09T11:35:25.208Z,987.79
2023-01-09T11:36:25.370Z,987.79
2023-01-09T11:37:25.085Z,987.79
2023-01-09T11:38:25.001Z,987.80
2023-01-09T11:39:25.116Z,987.82
2023-01-09T11:40:24.904Z,987.79
2023-01-09T11:41:24.833Z,987.76
2023-01-09T11:42:24.794Z,987.74
2023-01-09T11:43:24.705Z,987.74
2023-01-09T11:44:24.671Z,987.74
2023-01-09T11:45:24.721Z,987.73
2023-01-09T11:46:24.570Z,987.71
2023-01-09T11:47:24.482Z,987.68
2023-01-09T11:48:24.405Z,987.67
2023-01-09T11:49:24.477Z,987.67
2023-01-09T11:50:24.272Z,987.65
2023-01-09T11:51:24.481Z,987.65
2023-01-09T11:52:24.162Z,987.67
2023-01-09T11:53:24.126Z,987.65
2023-01-09T11:54:24.036Z,987.65
2023-01-09T11:55:29.338Z,987.64
2023-01-09T11:56:24.023Z,987.64
2023-01-09T11:57:24.019Z,987.63
2023-01-09T11:58:23.781Z,987.63
2023-01-09T11:59:23.740Z,987.62
2023-01-09T12:00:23.684Z,987.60
2023-01-09T12:01:23.608Z,987.57
2023-01-09T12:02:23.559Z,987.55
2023-01-09T12:03:23.702Z,987.54
2023-01-09T12:04:23.481Z,987.53
2023-01-09T12:05:23.388Z,987.54
2023-01-09T12:06:23.324Z,987.54
2023-01-09T12:07:23.258Z,987.54
2023-01-09T12:08:23.195Z,987.53
2023-01-09T12:09:23.303Z,987.53
2023-01-09T12:10:23.099Z,987.54
2023-01-09T12:11:23.010Z,987.53
2023-01-09T12:12:22.953Z,987.53
2023-01-09T12:13:22.886Z,987.53
2023-01-09T12:14:22.869Z,987.52
2023-01-09T12:15:23.073Z,987.52
2023-01-09T12:16:22.742Z,987.50
2023-01-09T12:17:22.654Z,987.49
2023-01-09T12:18:22.588Z,987.47
2023-01-09T12:19:22.551Z,987.46
2023-01-09T12:20:22.484Z,987.45
2023-01-09T12:21:22.460Z,987.45
2023-01-09T12:22:22.368Z,987.42
2023-01-09T12:23:22.295Z,987.41
2023-01-09T12:24:22.309Z,987.40
2023-01-09T12:25:22.180Z,987.38
2023-01-09T12:26:22.112Z,987.39
2023-01-09T12:27:22.218Z,987.37